Time;durP1;ratioP1;P1;durP2;ratioP2;P2;SDS_P1;SDS_P2;PMS_P1;PMS_P2;Temp;Humidity;BMP_temperature;BMP_pressure;BME280_temperature;BME280_humidity;BME280_pressure;Samples;Min_cycle;Max_cycle;Signal;HPM_P1;HPM_P2
2021/11/03 00:01:22;;;;;;;54.33;32.65;;;;;;;7.23;97.94;97958.10;4038207;85;21473;-89
2021/11/03 00:07:24;;;;;;;55.75;32.60;;;;;;;7.26;97.98;97954.62;4033001;85;21973;-89
2021/11/03 00:13:27;;;;;;;74.58;37.90;;;;;;;7.26;97.95;97957.34;3979395;87;21615;-91
2021/11/03 00:19:28;;;;;;;65.87;35.15;;;;;;;7.20;97.65;97974.63;3975538;87;21064;-89
2021/11/03 00:25:30;;;;;;;73.42;37.98;;;;;;;7.08;97.75;97976.84;3907524;88;21666;-88
2021/11/03 00:31:31;;;;;;;65.10;36.42;;;;;;;7.13;97.98;97981.92;3903382;88;21122;-88
2021/11/03 00:37:33;;;;;;;56.75;31.15;;;;;;;7.02;97.61;97988.64;3995107;87;21541;-89
2021/11/03 00:43:35;;;;;;;65.00;32.80;;;;;;;7.05;98.16;98008.87;4047681;85;21602;-89
2021/11/03 00:49:37;;;;;;;61.83;32.38;;;;;;;7.13;97.99;98014.58;3978641;87;21562;-89
2021/11/03 00:55:41;;;;;;;51.42;29.98;;;;;;;7.13;97.64;98011.29;3942720;88;21116;-88
2021/11/03 01:01:44;;;;;;;52.20;30.10;;;;;;;7.03;97.38;98024.20;3988488;87;21011;-88
2021/11/03 01:07:46;;;;;;;39.70;23.12;;;;;;;6.96;97.42;98029.59;3975595;87;21076;-89
2021/11/03 01:13:48;;;;;;;39.13;23.73;;;;;;;6.80;97.22;98036.41;3977546;87;21092;-89
2021/11/03 01:19:49;;;;;;;43.13;24.85;;;;;;;6.63;97.31;98035.64;3979595;86;21041;-89
2021/11/03 01:25:51;;;;;;;43.13;25.40;;;;;;;6.57;97.55;98041.21;4038838;85;21098;-90
2021/11/03 01:31:53;;;;;;;44.70;26.40;;;;;;;6.51;97.87;98033.18;4058463;85;21123;-90
2021/11/03 01:37:56;;;;;;;40.73;25.50;;;;;;;6.51;97.93;98016.30;4054194;85;21090;-90
2021/11/03 01:44:04;;;;;;;36.53;23.12;;;;;;;6.46;98.03;98015.27;4023955;85;21064;-88
2021/11/03 01:50:28;;;;;;;33.58;20.77;;;;;;;6.29;97.52;98030.22;4062807;85;21098;-89
2021/11/03 01:56:32;;;;;;;35.75;21.37;;;;;;;6.22;97.83;98038.27;4027090;85;21103;-88
2021/11/03 02:02:35;;;;;;;34.60;20.40;;;;;;;6.20;97.64;98032.42;3993425;88;21072;-88
2021/11/03 02:08:41;;;;;;;30.85;19.65;;;;;;;6.10;97.24;98030.93;3983476;87;21069;-89
2021/11/03 02:14:43;;;;;;;34.35;18.57;;;;;;;5.87;97.08;98036.42;3976247;87;21041;-88
2021/11/03 02:20:49;;;;;;;30.05;17.75;;;;;;;5.69;97.40;98041.37;3985755;88;21040;-88
2021/11/03 02:26:52;;;;;;;26.93;15.70;;;;;;;5.56;97.08;98044.86;3985025;87;21039;-88
2021/11/03 02:32:58;;;;;;;25.15;15.60;;;;;;;5.40;97.49;98048.88;3982625;87;21061;-87
2021/11/03 02:39:05;;;;;;;30.95;17.67;;;;;;;5.37;97.39;98046.30;4051712;85;21020;-87
2021/11/03 02:45:18;;;;;;;27.32;16.20;;;;;;;5.27;96.96;98044.20;4058912;85;21057;-87
2021/11/03 02:51:41;;;;;;;22.52;14.30;;;;;;;5.11;96.90;98050.88;4050420;85;21032;-87
2021/11/03 02:57:43;;;;;;;21.70;13.98;;;;;;;4.99;97.35;98050.51;4054321;85;21055;-88
2021/11/03 03:03:46;;;;;;;21.75;13.70;;;;;;;4.97;97.13;98041.14;4072561;85;21073;-88
2021/11/03 03:09:48;;;;;;;17.62;11.43;;;;;;;4.82;96.56;98033.34;3958310;87;21057;-88
2021/11/03 03:15:50;;;;;;;17.82;11.38;;;;;;;4.68;96.85;98040.63;4003219;87;21106;-87
2021/11/03 03:21:52;;;;;;;21.90;12.82;;;;;;;4.74;97.54;98042.49;3973581;87;21092;-88
2021/11/03 03:27:54;;;;;;;17.37;11.53;;;;;;;4.78;97.41;98041.41;4040544;85;21577;-88
2021/11/03 03:33:59;;;;;;;17.48;10.88;;;;;;;4.85;97.74;98044.23;4048114;85;21542;-89
2021/11/03 03:40:02;;;;;;;19.30;11.57;;;;;;;4.83;97.35;98053.33;4047995;85;21169;-88
2021/11/03 03:46:05;;;;;;;18.27;10.63;;;;;;;4.78;96.93;98064.45;4046275;85;21124;-87
2021/11/03 03:52:08;;;;;;;17.75;10.88;;;;;;;4.69;96.86;98066.61;3990402;87;21060;-89
2021/11/03 03:58:10;;;;;;;16.10;9.40;;;;;;;4.65;97.13;98058.97;3979722;87;21678;-87
2021/11/03 04:04:12;;;;;;;17.92;10.45;;;;;;;4.65;97.43;98067.10;3975353;87;21053;-87
2021/11/03 04:10:15;;;;;;;16.93;9.88;;;;;;;4.70;97.61;98072.80;3907098;88;21105;-87
2021/11/03 04:16:17;;;;;;;15.90;10.88;;;;;;;4.76;97.79;98085.72;3912879;88;21125;-90
2021/11/03 04:22:19;;;;;;;15.88;9.80;;;;;;;4.80;97.80;98083.88;3969364;87;21605;-87
2021/11/03 04:28:22;;;;;;;14.03;9.50;;;;;;;4.84;97.66;98094.77;4049112;85;21563;-88
2021/11/03 04:34:26;;;;;;;12.00;7.47;;;;;;;4.84;97.88;98104.25;4061256;85;21108;-88
2021/11/03 04:40:30;;;;;;;11.50;7.55;;;;;;;4.85;97.66;98107.20;4049714;85;21936;-87
2021/11/03 04:46:33;;;;;;;13.62;8.40;;;;;;;4.74;97.59;98101.55;4058882;85;21095;-87
2021/11/03 04:52:35;;;;;;;8.33;5.75;;;;;;;4.71;97.50;98105.56;4046430;85;22014;-87
2021/11/03 04:58:37;;;;;;;9.35;6.33;;;;;;;4.82;97.88;98099.19;4065512;85;21076;-86
2021/11/03 05:04:39;;;;;;;9.20;5.65;;;;;;;4.94;97.86;98105.04;4057058;85;21589;-89
2021/11/03 05:10:41;;;;;;;9.00;6.10;;;;;;;4.91;97.35;98107.11;4039638;85;21039;-87
2021/11/03 05:16:43;;;;;;;9.83;5.78;;;;;;;4.83;97.53;98118.41;4035365;85;21059;-88
2021/11/03 05:22:47;;;;;;;8.05;5.72;;;;;;;4.77;97.59;98121.19;4030351;85;21087;-88
2021/11/03 05:28:53;;;;;;;9.08;5.20;;;;;;;4.69;97.29;98124.11;4034717;85;21071;-87
2021/11/03 05:34:55;;;;;;;;;;;;;;;4.55;97.37;98116.48;4049942;85;21051;-87
2021/11/03 05:40:56;;;;;;;8.13;5.75;;;;;;;4.38;96.94;98113.40;4051911;85;20540;-88
2021/11/03 05:46:58;;;;;;;7.97;5.22;;;;;;;4.22;96.93;98118.87;4052524;85;21047;-88
2021/11/03 05:53:00;;;;;;;8.63;5.70;;;;;;;4.08;96.72;98114.50;4054168;85;21052;-87
2021/11/03 05:59:04;;;;;;;7.25;5.12;;;;;;;3.92;96.60;98124.56;3973416;87;21040;-89
2021/11/03 06:05:07;;;;;;;8.10;4.92;;;;;;;3.76;96.42;98127.86;4012126;85;21064;-88
2021/11/03 06:11:14;;;;;;;8.38;5.90;;;;;;;3.72;97.16;98137.03;4035778;85;21954;-88
2021/11/03 06:17:16;;;;;;;9.83;5.92;;;;;;;3.73;96.97;98143.45;3978602;87;21057;-87
2021/11/03 06:23:18;;;;;;;8.13;5.65;;;;;;;3.74;97.05;98147.75;3917228;88;21667;-88
2021/11/03 06:29:19;;;;;;;13.58;6.47;;;;;;;3.71;97.24;98167.95;3933344;88;21659;-87
2021/11/03 06:35:23;;;;;;;28.15;14.00;;;;;;;3.83;97.88;98174.63;3973782;87;21112;-87
2021/11/03 06:41:27;;;;;;;84.67;34.05;;;;;;;3.94;97.67;98185.94;3943001;88;21106;-91
2021/11/03 06:47:32;;;;;;;30.32;16.85;;;;;;;4.00;98.00;98193.21;3919587;88;21136;-87
2021/11/03 06:53:33;;;;;;;25.57;16.02;;;;;;;4.10;98.33;98197.52;3921790;88;21056;-86
2021/11/03 06:59:36;;;;;;;39.42;23.47;;;;;;;4.27;98.81;98205.85;3929589;88;21068;-87
2021/11/03 07:05:42;;;;;;;92.37;44.00;;;;;;;4.54;99.20;98216.53;3906343;88;21074;-88
2021/11/03 07:11:44;;;;;;;36.65;19.57;;;;;;;5.13;99.84;98207.31;4021720;85;21624;-89
2021/11/03 07:17:46;;;;;;;24.37;15.53;;;;;;;6.07;100.00;98217.78;3973399;87;21067;-87
2021/11/03 07:23:47;;;;;;;18.37;12.33;;;;;;;7.13;100.00;98223.58;4047141;85;21044;-88
2021/11/03 07:29:49;;;;;;;20.12;9.78;;;;;;;8.04;100.00;98227.84;4050302;85;21182;-89
2021/11/03 07:35:51;;;;;;;13.18;8.80;;;;;;;8.73;99.40;98235.59;4057961;85;21043;-88
2021/11/03 07:41:53;;;;;;;19.12;10.53;;;;;;;8.77;96.85;98228.99;3967071;87;21637;-88
2021/11/03 07:47:58;;;;;;;15.20;9.88;;;;;;;9.15;97.99;98244.02;4037927;85;21061;-89
2021/11/03 07:54:00;;;;;;;15.50;9.18;;;;;;;9.96;98.09;98250.52;4066882;85;21058;-89
2021/11/03 08:00:10;;;;;;;12.33;7.20;;;;;;;10.83;96.96;98254.46;3979029;87;21041;-88
2021/11/03 08:06:13;;;;;;;7.53;4.37;;;;;;;11.56;96.51;98247.95;4053003;85;21539;-92
2021/11/03 08:12:17;;;;;;;4.03;2.65;;;;;;;12.08;95.30;98248.28;3979636;87;21605;-90
2021/11/03 08:18:24;;;;;;;3.35;2.30;;;;;;;12.49;93.53;98253.84;4045675;85;21064;-89
2021/11/03 08:24:31;;;;;;;4.55;2.62;;;;;;;12.72;91.98;98267.76;4047295;85;21108;-91
2021/11/03 08:37:22;;;;;;;2.50;1.60;;;;;;;13.98;85.43;98277.94;3797384;85;21147;-91
2021/11/03 08:43:27;;;;;;;;;;;;;;;13.54;85.45;98265.16;3969054;87;21568;-91
2021/11/03 08:49:34;;;;;;;1.07;0.85;;;;;;;13.95;80.73;98269.14;3895699;88;20169;-92
2021/11/03 08:55:38;;;;;;;3.08;1.72;;;;;;;13.81;75.78;98264.59;4075815;85;20989;-90
2021/11/03 09:01:43;;;;;;;2.95;1.80;;;;;;;14.52;81.91;98267.11;3984638;87;21084;-91
2021/11/03 09:28:22;;;;;;;4.67;1.80;;;;;;;15.84;60.47;98267.02;4394032;78;80606;-85
2021/11/03 09:34:23;;;;;;;3.17;1.65;;;;;;;16.01;69.67;98262.50;4298361;80;21044;-85
2021/11/03 09:40:39;;;;;;;2.37;1.40;;;;;;;16.85;70.03;98260.50;4299856;80;21090;-85
2021/11/03 09:46:45;;;;;;;2.05;1.60;;;;;;;17.68;67.40;98259.28;4311253;81;21031;-85
2021/11/03 09:52:52;;;;;;;3.03;1.63;;;;;;;18.21;68.63;98248.77;4353584;79;21076;-85
2021/11/03 09:59:27;;;;;;;;;;;;;;;;;;;;;
2021/11/03 10:05:51;;;;;;;2.67;1.30;;;;;;;18.99;65.45;98247.01;4334569;79;21066;-84
2021/11/03 10:11:54;;;;;;;3.50;1.57;;;;;;;18.83;63.65;98245.77;4325700;80;21188;-86
2021/11/03 10:18:17;;;;;;;3.65;1.50;;;;;;;18.66;64.92;98252.86;4338956;80;21726;-85
2021/11/03 10:24:40;;;;;;;3.52;1.45;;;;;;;18.73;63.79;98247.67;4267745;80;21056;-85
2021/11/03 10:30:51;;;;;;;2.50;1.37;;;;;;;18.09;62.30;98244.77;4293119;80;21019;-86
2021/11/03 10:37:19;;;;;;;4.90;1.50;;;;;;;18.01;61.83;98230.20;4284565;80;21528;-84
2021/11/03 10:43:42;;;;;;;2.10;1.27;;;;;;;17.44;56.65;98228.90;4284564;81;21112;-82
2021/11/03 10:49:58;;;;;;;3.22;1.00;;;;;;;16.64;53.24;98227.10;4271055;81;21078;-83
2021/11/03 10:56:28;;;;;;;3.50;1.07;;;;;;;16.18;53.22;98225.42;4270277;81;21584;-83
2021/11/03 11:02:31;;;;;;;2.00;0.90;;;;;;;15.99;54.41;98208.31;4274198;81;21875;-82
2021/11/03 11:08:33;;;;;;;1.47;0.82;;;;;;;16.02;53.99;98203.31;4292714;81;21494;-83
2021/11/03 11:14:34;;;;;;;1.15;0.70;;;;;;;15.78;51.31;98210.19;4299921;80;22099;-84
2021/11/03 11:20:41;;;;;;;1.30;0.62;;;;;;;15.70;52.82;98200.51;4283308;81;21022;-84
2021/11/03 11:26:58;;;;;;;;;;;;;;;15.65;52.43;98192.14;4296421;81;21019;-83
2021/11/03 11:33:24;;;;;;;2.67;0.90;;;;;;;15.41;52.74;98192.05;4310231;79;20205;-85
2021/11/03 11:39:54;;;;;;;1.27;0.80;;;;;;;15.25;52.55;98183.69;4307648;80;21008;-83
2021/11/03 11:45:55;;;;;;;0.53;0.50;;;;;;;15.17;52.44;98180.13;4290800;80;21091;-82
2021/11/03 11:52:08;;;;;;;2.55;1.10;;;;;;;15.05;53.57;98176.02;4288412;80;21030;-82
2021/11/03 11:58:43;;;;;;;3.37;1.70;;;;;;;14.94;53.18;98169.17;4251543;81;21090;-83
2021/11/03 12:05:06;;;;;;;0.75;0.62;;;;;;;14.91;53.67;98168.03;4332585;79;21051;-83
2021/11/03 12:11:35;;;;;;;2.22;0.80;;;;;;;14.80;54.28;98166.08;4253357;82;21094;-84
2021/11/03 12:17:59;;;;;;;1.40;1.00;;;;;;;14.57;53.71;98177.72;4322659;79;21634;-83
2021/11/03 12:24:09;;;;;;;1.67;0.70;;;;;;;14.54;53.76;98174.44;4275300;80;21053;-84
2021/11/03 12:30:19;;;;;;;1.30;0.85;;;;;;;14.56;52.83;98172.05;4326768;79;21070;-86
2021/11/03 12:36:21;;;;;;;1.72;0.53;;;;;;;14.56;53.85;98176.17;4291771;80;21075;-83
2021/11/03 12:42:34;;;;;;;1.70;0.70;;;;;;;14.60;52.81;98179.05;4287570;80;22685;-83
2021/11/03 12:48:56;;;;;;;2.65;0.75;;;;;;;14.51;53.03;98180.20;4301704;80;21073;-83
2021/11/03 12:54:59;;;;;;;2.40;0.80;;;;;;;14.38;53.89;98185.33;4270770;80;20969;-83
2021/11/03 13:01:05;;;;;;;0.78;0.53;;;;;;;14.18;54.10;98186.03;4273979;81;21119;-83
2021/11/03 13:07:18;;;;;;;2.63;0.80;;;;;;;13.98;54.13;98183.01;4269932;81;21047;-84
2021/11/03 13:13:21;;;;;;;1.15;0.65;;;;;;;13.94;53.70;98189.14;4283852;80;21590;-83
2021/11/03 13:19:42;;;;;;;1.02;0.50;;;;;;;13.94;53.59;98180.89;4289315;81;21004;-82
2021/11/03 13:25:55;;;;;;;3.25;0.93;;;;;;;14.02;53.50;98180.38;4277709;81;21080;-83
2021/11/03 13:32:30;;;;;;;3.37;1.20;;;;;;;14.12;52.49;98178.66;4266090;80;21043;-83
2021/11/03 13:38:36;;;;;;;2.83;1.00;;;;;;;14.13;53.19;98172.73;4272283;80;21076;-83
2021/11/03 13:44:40;;;;;;;3.42;0.80;;;;;;;14.19;51.95;98170.27;4271657;81;21651;-83
2021/11/03 13:50:53;;;;;;;3.75;0.90;;;;;;;14.19;52.53;98156.51;4251367;80;21051;-82
2021/11/03 13:56:56;;;;;;;2.85;1.15;;;;;;;14.21;52.31;98161.01;4276162;80;21036;-83
2021/11/03 14:02:58;;;;;;;2.67;1.20;;;;;;;14.10;53.09;98153.52;4275241;81;21114;-82
2021/11/03 14:09:17;;;;;;;1.95;1.10;;;;;;;13.96;51.87;98162.79;4269133;81;21032;-83
2021/11/03 14:15:19;;;;;;;5.90;1.62;;;;;;;13.79;52.09;98165.80;4279345;80;21094;-83
2021/11/03 14:21:22;;;;;;;2.22;1.57;;;;;;;13.65;52.54;98174.27;4279627;80;21039;-83
2021/11/03 14:27:25;;;;;;;4.28;2.60;;;;;;;13.55;53.05;98160.05;4265019;80;21054;-83
2021/11/03 14:33:37;;;;;;;2.75;1.30;;;;;;;13.43;53.71;98162.78;4287518;80;21090;-83
2021/11/03 14:39:42;;;;;;;2.83;1.77;;;;;;;13.31;54.04;98152.33;4281254;80;21680;-82
2021/11/03 14:45:44;;;;;;;2.62;1.17;;;;;;;13.17;54.40;98156.63;4278994;80;21089;-82
2021/11/03 14:51:45;;;;;;;4.50;1.90;;;;;;;13.01;54.87;98172.94;4309104;80;21099;-83
2021/11/03 14:57:47;;;;;;;3.70;2.30;;;;;;;12.79;55.30;98157.86;4287579;81;21061;-82
2021/11/03 15:03:48;;;;;;;5.72;3.30;;;;;;;12.53;55.91;98139.28;4266769;80;21101;-83
2021/11/03 15:09:51;;;;;;;5.47;3.05;;;;;;;12.28;56.37;98136.80;4281039;80;22454;-83
2021/11/03 15:15:58;;;;;;;5.22;3.12;;;;;;;12.07;57.12;98127.98;4289787;80;21624;-83
2021/11/03 15:22:00;;;;;;;7.57;4.33;;;;;;;11.81;57.34;98127.20;4253607;81;21543;-82
2021/11/03 15:28:01;;;;;;;9.88;5.03;;;;;;;11.54;58.25;98135.19;4308286;81;21007;-81
2021/11/03 15:34:04;;;;;;;10.30;6.05;;;;;;;11.45;58.62;98140.95;4264550;81;20988;-82
2021/11/03 15:40:11;;;;;;;11.43;6.60;;;;;;;11.37;59.23;98137.45;4262015;81;21032;-82
2021/11/03 15:46:17;;;;;;;14.30;9.18;;;;;;;11.32;60.27;98143.95;4265339;80;21486;-82
2021/11/03 15:52:19;;;;;;;16.42;9.63;;;;;;;11.25;60.50;98145.34;4277893;80;21054;-82
2021/11/03 15:58:22;;;;;;;21.68;10.78;;;;;;;11.14;61.01;98131.70;4262746;81;21090;-82
2021/11/03 16:04:31;;;;;;;21.57;12.53;;;;;;;11.09;62.67;98160.88;4267151;81;21026;-81
2021/11/03 16:10:38;;;;;;;21.45;10.60;;;;;;;10.99;63.45;98157.00;4275305;80;21451;-83
2021/11/03 16:16:40;;;;;;;22.22;11.95;;;;;;;10.93;63.00;98160.57;4295347;80;21034;-83
2021/11/03 16:22:46;;;;;;;18.80;10.35;;;;;;;10.88;63.30;98151.39;4332299;79;22622;-83
2021/11/03 16:28:48;;;;;;;19.97;11.83;;;;;;;10.84;63.65;98154.13;4264992;82;22134;-82
2021/11/03 16:34:51;;;;;;;21.50;11.68;;;;;;;10.83;64.02;98156.69;4258673;82;21043;-82
2021/11/03 16:41:31;;;;;;;28.25;15.93;;;;;;;10.79;64.44;98164.73;4269460;81;21055;-82
2021/11/03 16:47:39;;;;;;;23.02;13.55;;;;;;;10.78;64.34;98169.41;4301025;80;21074;-82
2021/11/03 16:53:47;;;;;;;50.83;22.17;;;;;;;10.82;64.67;98166.06;4335614;80;21008;-82
2021/11/03 16:59:48;;;;;;;40.40;23.25;;;;;;;10.79;64.93;98171.56;4315656;80;21039;-82
2021/11/03 17:05:54;;;;;;;49.70;29.82;;;;;;;10.80;65.50;98162.17;4329306;80;21091;-82
2021/11/03 17:11:56;;;;;;;20.97;13.98;;;;;;;10.94;66.07;98167.59;4292039;80;21031;-82
2021/11/03 17:17:57;;;;;;;45.70;18.62;;;;;;;11.06;66.68;98173.42;4292368;80;21011;-82
2021/11/03 17:23:59;;;;;;;27.87;13.98;;;;;;;11.22;66.08;98169.42;4288419;80;21067;-82
2021/11/03 17:30:06;;;;;;;25.25;12.37;;;;;;;11.30;65.60;98181.92;4266070;80;21672;-82
2021/11/03 17:36:10;;;;;;;16.75;9.38;;;;;;;11.22;65.54;98187.23;4313925;80;21708;-82
2021/11/03 17:42:17;;;;;;;21.73;11.93;;;;;;;11.16;65.50;98182.77;4287362;80;21086;-82
2021/11/03 17:48:21;;;;;;;;;;;;;;;10.98;65.93;98173.83;4301482;80;20996;-82
2021/11/03 17:54:24;;;;;;;22.02;11.93;;;;;;;10.75;66.35;98166.67;4260001;81;20113;-82
2021/11/03 18:00:39;;;;;;;30.32;14.40;;;;;;;10.51;66.57;98168.88;4270425;81;21073;-82
2021/11/03 18:06:41;;;;;;;27.93;14.53;;;;;;;10.28;66.68;98171.25;4295094;80;21062;-83
2021/11/03 18:12:44;;;;;;;32.38;16.87;;;;;;;10.08;66.93;98165.42;4275436;80;21043;-82
2021/11/03 18:18:45;;;;;;;29.10;16.75;;;;;;;9.88;67.49;98166.16;4276642;80;21366;-82
2021/11/03 18:24:48;;;;;;;33.33;18.35;;;;;;;9.67;67.98;98162.03;4266497;81;21030;-81
2021/11/03 18:30:56;;;;;;;28.98;15.45;;;;;;;9.50;68.18;98157.53;4283039;80;21034;-82
2021/11/03 18:37:00;;;;;;;23.75;13.38;;;;;;;9.37;68.55;98163.16;4288564;80;21559;-83
2021/11/03 18:43:02;;;;;;;29.95;13.30;;;;;;;9.26;69.38;98163.71;4264407;81;21036;-81
2021/11/03 18:49:06;;;;;;;23.00;12.82;;;;;;;9.16;70.06;98154.13;4284524;80;21103;-82
2021/11/03 18:55:19;;;;;;;18.20;10.40;;;;;;;9.11;70.32;98161.32;4298834;80;21027;-82
2021/11/03 19:01:21;;;;;;;19.32;9.15;;;;;;;9.06;70.77;98154.86;4293328;80;21004;-83
2021/11/03 19:07:26;;;;;;;15.95;8.18;;;;;;;9.11;71.37;98156.62;4284562;82;21031;-83
2021/11/03 19:13:28;;;;;;;19.30;9.28;;;;;;;9.13;71.39;98151.56;4272104;80;21098;-82
2021/11/03 19:19:30;;;;;;;16.15;7.90;;;;;;;9.10;71.15;98155.06;4258905;81;21111;-81
2021/11/03 19:25:35;;;;;;;20.68;10.18;;;;;;;9.08;71.17;98141.02;4254973;81;21078;-82
2021/11/03 19:31:37;;;;;;;25.15;10.82;;;;;;;9.06;71.73;98151.55;4281131;80;20988;-82
2021/11/03 19:37:48;;;;;;;26.90;11.50;;;;;;;9.01;71.56;98159.32;4273710;80;21576;-82
2021/11/03 19:43:51;;;;;;;32.05;14.43;;;;;;;9.02;71.79;98161.66;4249539;81;21020;-82
2021/11/03 19:49:53;;;;;;;22.60;10.58;;;;;;;8.96;71.78;98161.84;4259635;81;21004;-82
2021/11/03 19:55:54;;;;;;;15.55;8.95;;;;;;;8.86;72.29;98177.60;4291744;81;21083;-81
2021/11/03 20:01:57;;;;;;;22.37;10.65;;;;;;;8.83;71.97;98170.76;4348964;79;21008;-81
2021/11/03 20:08:07;;;;;;;80.47;35.35;;;;;;;8.77;71.83;98154.55;4278180;80;21023;-81
2021/11/03 20:14:11;;;;;;;48.65;23.40;;;;;;;8.72;72.65;98159.00;4267692;80;21084;-82
2021/11/03 20:20:26;;;;;;;27.00;12.13;;;;;;;8.68;72.38;98148.06;4247488;81;21037;-82
2021/11/03 20:26:30;;;;;;;20.23;10.28;;;;;;;8.69;72.71;98142.03;4352006;79;21106;-80
2021/11/03 20:32:40;;;;;;;18.77;9.48;;;;;;;8.69;73.02;98140.07;4286018;80;21003;-81
2021/11/03 20:38:47;;;;;;;16.12;8.43;;;;;;;8.79;73.52;98132.53;4299321;80;21058;-81
2021/11/03 20:45:09;;;;;;;16.57;8.23;;;;;;;8.81;73.38;98136.23;4330351;80;21488;-82
2021/11/03 20:51:25;;;;;;;20.02;8.78;;;;;;;8.89;73.40;98131.01;4308236;80;21047;-81
2021/11/03 20:57:25;;;;;;;17.35;8.33;;;;;;;8.93;73.48;98131.22;4276510;80;21087;-82
2021/11/03 21:03:27;;;;;;;21.45;11.03;;;;;;;8.98;73.74;98133.58;4307832;80;21024;-81
2021/11/03 21:09:28;;;;;;;18.02;9.55;;;;;;;8.98;74.23;98147.80;4287930;80;21047;-81
2021/11/03 21:15:34;;;;;;;15.88;8.23;;;;;;;9.01;74.06;98147.03;4302387;80;21043;-82
2021/11/03 21:21:36;;;;;;;18.17;9.43;;;;;;;9.03;74.11;98140.62;4267130;81;21051;-83
2021/11/03 21:27:39;;;;;;;15.75;8.80;;;;;;;9.05;74.23;98143.15;4297434;80;21086;-82
2021/11/03 21:33:42;;;;;;;15.43;8.90;;;;;;;9.05;74.42;98139.05;4250404;81;21102;-84
2021/11/03 21:39:43;;;;;;;17.48;9.53;;;;;;;9.07;74.90;98144.92;4305334;80;21012;-82
2021/11/03 21:45:49;;;;;;;18.02;9.85;;;;;;;9.10;74.63;98152.34;4229599;82;21023;-82
2021/11/03 21:51:51;;;;;;;19.32;9.63;;;;;;;9.13;74.46;98174.77;4245888;81;21081;-83
2021/11/03 21:57:57;;;;;;;40.55;14.10;;;;;;;9.15;74.53;98179.84;4222562;82;21094;-82
2021/11/03 22:04:05;;;;;;;27.70;15.13;;;;;;;9.03;74.53;98174.74;4294390;80;21060;-82
2021/11/03 22:10:08;;;;;;;35.35;15.18;;;;;;;8.95;74.61;98191.67;4274085;80;21407;-83
2021/11/03 22:16:14;;;;;;;59.05;19.80;;;;;;;8.84;74.90;98184.02;4297617;80;21031;-80
2021/11/03 22:22:19;;;;;;;20.20;10.70;;;;;;;8.83;74.97;98176.98;4304158;81;21131;-82
2021/11/03 22:28:23;;;;;;;20.50;11.00;;;;;;;8.81;75.11;98178.53;4302669;80;21540;-81
2021/11/03 22:34:24;;;;;;;24.40;12.95;;;;;;;8.77;75.72;98176.39;4296465;80;21011;-82
2021/11/03 22:40:28;;;;;;;26.40;14.68;;;;;;;8.58;75.40;98161.06;4298915;80;21200;-82
2021/11/03 22:46:45;;;;;;;34.25;16.48;;;;;;;8.49;75.77;98145.62;4333000;79;21067;-84
2021/11/03 22:53:02;;;;;;;29.35;15.65;;;;;;;8.45;76.63;98137.22;4310760;80;21290;-83
2021/11/03 22:59:12;;;;;;;30.88;14.47;;;;;;;8.36;77.56;98158.03;4342255;79;21010;-82
2021/11/03 23:05:25;;;;;;;25.97;15.43;;;;;;;8.33;78.47;98165.58;4341728;80;21530;-82
2021/11/03 23:11:38;;;;;;;26.70;14.65;;;;;;;8.15;78.25;98166.02;4256121;81;21572;-83
2021/11/03 23:17:41;;;;;;;19.80;11.70;;;;;;;8.00;78.77;98161.63;4356357;80;21083;-83
2021/11/03 23:23:49;;;;;;;22.15;14.03;;;;;;;7.90;79.47;98144.61;4283097;80;21124;-84
2021/11/03 23:29:53;;;;;;;22.42;13.75;;;;;;;7.82;79.52;98116.52;4260131;80;21008;-82
2021/11/03 23:35:55;;;;;;;23.18;14.15;;;;;;;7.76;80.50;98107.14;4276303;80;21615;-83
2021/11/03 23:42:01;;;;;;;25.37;15.88;;;;;;;7.79;81.46;98110.47;4273545;80;21295;-83
2021/11/03 23:48:25;;;;;;;28.35;16.60;;;;;;;7.77;80.86;98097.00;4266069;81;21082;-84
2021/11/03 23:54:28;;;;;;;25.77;16.40;;;;;;;7.72;81.03;98100.10;4276260;81;21756;-83
